sensor_id;sensor_type;location;lat;lon;timestamp;pressure;altitude;pressure_sealevel;temperature;humidity
71565;BME280;59397;50.952;14.502;2023-05-23T11:15:58;978.94;;;19.33;80.09
71565;BME280;59397;50.952;14.502;2023-05-23T11:35:32;978.97;;;18.81;81.38
71565;BME280;59397;50.952;14.502;2023-05-23T11:55:12;978.94;;;19.35;80.78
71565;BME280;59397;50.952;14.502;2023-05-23T12:14:48;978.82;;;21.91;70.12
71565;BME280;59397;50.952;14.502;2023-05-23T12:34:25;978.77;;;23.22;63.83
71565;BME280;59397;50.952;14.502;2023-05-23T12:53:53;978.74;;;20.98;70.53
71565;BME280;59397;50.952;14.502;2023-05-23T13:13:31;978.87;;;20.08;72.36
71565;BME280;59397;50.952;14.502;2023-05-23T13:33:15;978.72;;;21.66;66.00
71565;BME280;59397;50.952;14.502;2023-05-23T13:52:52;978.68;;;22.37;60.49
71565;BME280;59397;50.952;14.502;2023-05-23T14:12:23;944.33;;;nan;59.99
71565;BME280;59397;50.952;14.502;2023-05-23T14:32:08;978.82;;;23.28;54.90
71565;BME280;59397;50.952;14.502;2023-05-23T14:51:30;979.02;;;20.77;61.00
71565;BME280;59397;50.952;14.502;2023-05-23T15:11:05;979.14;;;21.03;57.20
71565;BME280;59397;50.952;14.502;2023-05-23T15:30:38;979.25;;;19.90;61.91
71565;BME280;59397;50.952;14.502;2023-05-23T15:50:08;979.37;;;19.14;61.91
71565;BME280;59397;50.952;14.502;2023-05-23T16:09:41;979.35;;;18.59;65.22
71565;BME280;59397;50.952;14.502;2023-05-23T16:29:20;979.73;;;18.51;65.82
71565;BME280;59397;50.952;14.502;2023-05-23T16:48:49;979.74;;;18.10;69.60
71565;BME280;59397;50.952;14.502;2023-05-23T17:08:24;979.97;;;17.24;72.62
71565;BME280;59397;50.952;14.502;2023-05-23T17:27:54;980.21;;;16.75;75.73
71565;BME280;59397;50.952;14.502;2023-05-23T17:47:28;980.23;;;16.41;78.72
71565;BME280;59397;50.952;14.502;2023-05-23T18:07:08;980.36;;;16.44;78.11
71565;BME280;59397;50.952;14.502;2023-05-23T18:26:27;980.63;;;15.85;80.41
71565;BME280;59397;50.952;14.502;2023-05-23T18:46:03;980.98;;;15.52;80.96
71565;BME280;59397;50.952;14.502;2023-05-23T19:05:33;981.20;;;14.81;83.25
71565;BME280;59397;50.952;14.502;2023-05-23T19:25:06;981.50;;;14.61;84.06
71565;BME280;59397;50.952;14.502;2023-05-23T19:44:40;981.71;;;14.61;84.60
71565;BME280;59397;50.952;14.502;2023-05-23T20:04:12;981.91;;;13.90;86.69
71565;BME280;59397;50.952;14.502;2023-05-23T20:23:45;982.12;;;13.45;86.94
71565;BME280;59397;50.952;14.502;2023-05-23T20:43:18;982.28;;;13.26;85.90
71565;BME280;59397;50.952;14.502;2023-05-23T21:02:53;982.43;;;13.03;86.43
71565;BME280;59397;50.952;14.502;2023-05-23T21:22:22;982.61;;;13.02;83.60
71565;BME280;59397;50.952;14.502;2023-05-23T21:41:55;982.59;;;13.00;82.71
71565;BME280;59397;50.952;14.502;2023-05-23T22:01:27;982.90;;;12.74;82.87
71565;BME280;59397;50.952;14.502;2023-05-23T22:21:06;983.04;;;12.88;81.77
71565;BME280;59397;50.952;14.502;2023-05-23T22:40:37;983.09;;;12.46;82.99
71565;BME280;59397;50.952;14.502;2023-05-23T23:00:13;981.98;;;12.00;81.42
71565;BME280;59397;50.952;14.502;2023-05-23T23:19:51;983.36;;;12.51;79.42
71565;BME280;59397;50.952;14.502;2023-05-23T23:39:20;983.37;;;12.29;78.53
71565;BME280;59397;50.952;14.502;2023-05-23T23:58:58;983.32;;;12.59;77.71
